Time,TemperatureF,DewpointF,PressureIn,WindDirection,WindDirectionDegrees,WindSpeedMPH,WindSpeedGustMPH,Humidity,HourlyPrecipIn,Conditions,Clouds,dailyrainin,SoftwareType,DateUTC
2013-12-19 00:03:00,40.5,32.5,29.46,SSW,205,4.8,6.7,73,0.00,,,0.00,WUHU216HW,2013-12-19 06:03:00,
2013-12-19 00:08:00,40.5,32.5,29.46,SSW,203,4.3,6.9,73,0.00,,,0.00,WUHU216HW,2013-12-19 06:08:00,
2013-12-19 00:13:00,40.3,32.7,29.46,SW,214,4.3,6.9,74,0.00,,,0.00,WUHU216HW,2013-12-19 06:13:00,
2013-12-19 00:18:00,40.3,32.7,29.46,SW,218,4.5,5.8,74,0.00,,,0.00,WUHU216HW,2013-12-19 06:18:00,
2013-12-19 00:23:00,40.1,32.5,29.46,SW,225,4.5,7.6,74,0.00,,,0.00,WUHU216HW,2013-12-19 06:23:00,
2013-12-19 00:28:00,40.0,32.3,29.46,SW,220,4.2,7.6,74,0.00,,,0.00,WUHU216HW,2013-12-19 06:28:00,
2013-12-19 00:33:00,40.0,32.3,29.46,SSW,203,4.5,6.3,74,0.00,,,0.00,WUHU216HW,2013-12-19 06:33:00,
2013-12-19 00:38:00,40.0,32.3,29.45,SSW,203,4.3,5.8,74,0.00,,,0.00,WUHU216HW,2013-12-19 06:38:00,
2013-12-19 00:43:00,40.0,32.3,29.46,SSW,203,4.0,5.6,74,0.00,,,0.00,WUHU216HW,2013-12-19 06:43:00,
2013-12-19 00:48:00,40.0,32.3,29.46,SW,225,5.1,5.4,74,0.00,,,0.00,WUHU216HW,2013-12-19 06:48:00,
2013-12-19 00:54:00,40.0,32.7,29.45,SW,225,5.4,6.5,75,0.00,,,0.00,WUHU216HW,2013-12-19 06:54:00,
2013-12-19 00:59:00,40.0,32.7,29.45,SSW,209,4.7,6.5,75,0.00,,,0.00,WUHU216HW,2013-12-19 06:59:00,
2013-12-19 01:04:00,39.8,32.5,29.45,SW,214,3.0,6.5,75,0.00,,,0.00,WUHU216HW,2013-12-19 07:04:00,
2013-12-19 01:09:00,39.8,32.5,29.45,SSW,205,4.6,6.5,75,0.00,,,0.00,WUHU216HW,2013-12-19 07:09:00,
2013-12-19 01:14:00,39.8,32.5,29.45,SW,214,4.4,6.3,75,0.00,,,0.00,WUHU216HW,2013-12-19 07:14:00,
2013-12-19 01:19:00,39.6,32.7,29.45,SW,215,3.5,5.4,76,0.00,,,0.00,WUHU216HW,2013-12-19 07:19:00,
2013-12-19 01:24:00,39.6,32.7,29.45,SW,214,3.6,6.3,76,0.00,,,0.00,WUHU216HW,2013-12-19 07:24:00,
2013-12-19 01:29:00,39.6,32.7,29.45,SW,225,4.9,6.3,76,0.00,,,0.00,WUHU216HW,2013-12-19 07:29:00,
2013-12-19 01:34:00,39.6,32.7,29.45,SSW,211,3.7,6.3,76,0.00,,,0.00,WUHU216HW,2013-12-19 07:34:00,
2013-12-19 01:39:00,39.6,32.7,29.45,SSW,203,5.4,6.3,76,0.00,,,0.00,WUHU216HW,2013-12-19 07:39:00,
2013-12-19 01:45:00,39.6,32.9,29.45,SSW,203,3.0,6.3,77,0.00,,,0.00,WUHU216HW,2013-12-19 07:45:00,
2013-12-19 01:50:00,39.6,32.9,29.45,SSW,203,4.3,6.0,77,0.00,,,0.00,WUHU216HW,2013-12-19 07:50:00,
2013-12-19 01:55:00,39.6,32.9,29.45,SSW,203,3.6,5.4,77,0.00,,,0.00,WUHU216HW,2013-12-19 07:55:00,
2013-12-19 02:00:00,39.6,32.9,29.45,SSW,200,3.9,5.1,77,0.00,,,0.00,WUHU216HW,2013-12-19 08:00:00,
2013-12-19 02:05:00,39.8,33.1,29.45,SW,215,4.5,7.2,77,0.00,,,0.00,WUHU216HW,2013-12-19 08:05:00,
2013-12-19 02:10:00,39.8,33.1,29.45,SSW,203,5.8,7.2,77,0.00,,,0.00,WUHU216HW,2013-12-19 08:10:00,
2013-12-19 02:15:00,40.0,33.3,29.45,SW,214,4.1,6.3,77,0.00,,,0.00,WUHU216HW,2013-12-19 08:15:00,
2013-12-19 02:20:00,40.0,33.3,29.45,SSW,200,4.4,6.3,77,0.00,,,0.00,WUHU216HW,2013-12-19 08:20:00,
2013-12-19 02:25:00,40.0,33.3,29.45,SSW,203,6.0,7.6,77,0.00,,,0.00,WUHU216HW,2013-12-19 08:25:00,
2013-12-19 02:30:00,40.1,33.9,29.45,SW,225,4.7,7.6,78,0.00,,,0.00,WUHU216HW,2013-12-19 08:30:00,
2013-12-19 02:36:00,40.1,33.5,29.45,WSW,248,4.0,6.9,77,0.00,,,0.00,WUHU216HW,2013-12-19 08:36:00,
2013-12-19 02:41:00,40.1,33.9,29.45,SSW,203,4.7,6.5,78,0.00,,,0.00,WUHU216HW,2013-12-19 08:41:00,
2013-12-19 02:46:00,40.1,33.9,29.45,SW,225,7.6,7.6,78,0.00,,,0.00,WUHU216HW,2013-12-19 08:46:00,
2013-12-19 02:51:00,40.3,33.9,29.45,SSW,199,3.9,7.6,78,0.00,,,0.00,WUHU216HW,2013-12-19 08:51:00,
2013-12-19 02:56:00,40.3,33.9,29.45,SW,217,4.8,6.3,78,0.00,,,0.00,WUHU216HW,2013-12-19 08:56:00,
2013-12-19 03:01:00,40.3,33.9,29.45,SW,225,3.4,6.3,78,0.00,,,0.00,WUHU216HW,2013-12-19 09:01:00,
2013-12-19 03:06:00,40.3,34.3,29.45,SW,218,4.6,5.8,79,0.00,,,0.00,WUHU216HW,2013-12-19 09:06:00,
2013-12-19 03:11:00,40.3,33.9,29.45,SSW,203,5.1,5.8,78,0.00,,,0.00,WUHU216HW,2013-12-19 09:11:00,
2013-12-19 03:16:00,40.3,33.9,29.45,SSW,200,3.5,5.6,78,0.00,,,0.00,WUHU216HW,2013-12-19 09:16:00,
2013-12-19 03:21:00,40.3,34.3,29.45,SSW,209,3.5,5.6,79,0.00,,,0.00,WUHU216HW,2013-12-19 09:21:00,
2013-12-19 03:26:00,40.3,34.3,29.45,SSW,203,3.6,4.7,79,0.00,,,0.00,WUHU216HW,2013-12-19 09:26:00,
2013-12-19 03:31:00,40.3,34.3,29.44,SSW,203,4.3,5.4,79,0.00,,,0.00,WUHU216HW,2013-12-19 09:31:00,
2013-12-19 03:37:00,40.5,34.5,29.44,SW,225,4.9,5.4,79,0.00,,,0.00,WUHU216HW,2013-12-19 09:37:00,
2013-12-19 03:42:00,40.5,34.5,29.44,SW,214,3.5,5.6,79,0.00,,,0.00,WUHU216HW,2013-12-19 09:42:00,
2013-12-19 03:47:00,40.5,34.8,29.44,SSW,210,3.2,5.6,80,0.00,,,0.00,WUHU216HW,2013-12-19 09:47:00,
2013-12-19 03:52:00,40.5,34.8,29.44,SSW,205,3.9,5.1,80,0.00,,,0.00,WUHU216HW,2013-12-19 09:52:00,
2013-12-19 03:57:00,40.3,34.7,29.43,SSW,203,3.6,5.1,80,0.00,,,0.00,WUHU216HW,2013-12-19 09:57:00,
2013-12-19 04:02:00,40.5,34.8,29.44,South,180,3.6,5.4,80,0.00,,,0.00,WUHU216HW,2013-12-19 10:02:00,
2013-12-19 04:07:00,40.5,34.8,29.44,SW,220,2.9,5.4,80,0.00,,,0.00,WUHU216HW,2013-12-19 10:07:00,
2013-12-19 04:12:00,40.5,34.8,29.44,SW,225,4.0,5.4,80,0.00,,,0.00,WUHU216HW,2013-12-19 10:12:00,
2013-12-19 04:17:00,40.7,34.9,29.44,SSW,205,3.5,6.3,80,0.00,,,0.00,WUHU216HW,2013-12-19 10:17:00,
2013-12-19 04:22:00,40.7,34.9,29.43,SSW,205,2.7,6.3,80,0.00,,,0.00,WUHU216HW,2013-12-19 10:22:00,
2013-12-19 04:27:00,40.7,34.9,29.43,SSW,201,3.5,5.4,80,0.00,,,0.00,WUHU216HW,2013-12-19 10:27:00,
2013-12-19 04:32:00,40.7,34.9,29.43,SSW,212,2.9,4.9,80,0.00,,,0.00,WUHU216HW,2013-12-19 10:32:00,
2013-12-19 04:38:00,40.5,35.1,29.43,SSW,203,4.3,4.9,81,0.00,,,0.00,WUHU216HW,2013-12-19 10:38:00,
2013-12-19 04:43:00,40.7,35.3,29.43,SSW,198,4.1,6.0,81,0.00,,,0.00,WUHU216HW,2013-12-19 10:43:00,
2013-12-19 04:48:00,40.7,35.3,29.43,SSW,203,3.4,6.0,81,0.00,,,0.00,WUHU216HW,2013-12-19 10:48:00,
2013-12-19 04:53:00,40.7,35.3,29.43,SSW,203,4.9,6.7,81,0.00,,,0.00,WUHU216HW,2013-12-19 10:53:00,
2013-12-19 04:58:00,40.7,35.3,29.43,SSW,211,3.3,6.7,81,0.00,,,0.00,WUHU216HW,2013-12-19 10:58:00,
2013-12-19 05:03:00,40.7,35.3,29.43,SW,225,4.9,5.6,81,0.00,,,0.00,WUHU216HW,2013-12-19 11:03:00,
2013-12-19 05:08:00,40.7,35.3,29.43,SSW,210,3.1,5.6,81,0.00,,,0.00,WUHU216HW,2013-12-19 11:08:00,
2013-12-19 05:13:00,40.7,35.3,29.43,SSW,207,2.7,5.1,81,0.00,,,0.00,WUHU216HW,2013-12-19 11:13:00,
2013-12-19 05:18:00,40.3,34.9,29.44,SSW,204,2.8,4.3,81,0.00,,,0.00,WUHU216HW,2013-12-19 11:18:00,
2013-12-19 05:23:00,40.1,34.7,29.44,SSW,194,2.3,4.0,81,0.00,,,0.00,WUHU216HW,2013-12-19 11:23:00,
2013-12-19 05:28:00,39.8,34.1,29.44,South,181,1.9,3.4,80,0.00,,,0.00,WUHU216HW,2013-12-19 11:28:00,
2013-12-19 05:33:00,39.2,33.7,29.43,SSE,158,1.8,2.5,80,0.00,,,0.00,WUHU216HW,2013-12-19 11:33:00,
2013-12-19 05:38:00,39.1,33.5,29.44,SSE,158,2.5,2.5,80,0.00,,,0.00,WUHU216HW,2013-12-19 11:38:00,
2013-12-19 05:44:00,38.9,33.3,29.44,SSE,166,1.5,2.5,80,0.00,,,0.00,WUHU216HW,2013-12-19 11:44:00,
2013-12-19 05:49:00,38.7,33.1,29.44,SE,135,1.8,2.5,80,0.00,,,0.00,WUHU216HW,2013-12-19 11:49:00,
2013-12-19 05:54:00,38.5,32.9,29.44,SSE,158,1.8,1.8,80,0.00,,,0.00,WUHU216HW,2013-12-19 11:54:00,
2013-12-19 05:59:00,38.3,32.8,29.44,SE,135,1.7,1.8,80,0.00,,,0.00,WUHU216HW,2013-12-19 11:59:00,
2013-12-19 06:04:00,38.0,32.4,29.44,SE,135,1.6,1.8,80,0.00,,,0.00,WUHU216HW,2013-12-19 12:04:00,
2013-12-19 06:09:00,37.8,32.5,29.44,SE,135,1.8,1.8,81,0.00,,,0.00,WUHU216HW,2013-12-19 12:09:00,
2013-12-19 06:14:00,37.6,32.3,29.44,SE,135,1.7,2.0,81,0.00,,,0.00,WUHU216HW,2013-12-19 12:14:00,
2013-12-19 06:19:00,37.4,32.4,29.44,SSE,158,2.0,2.5,82,0.00,,,0.00,WUHU216HW,2013-12-19 12:19:00,
2013-12-19 06:24:00,37.3,32.2,29.44,SSE,159,1.9,2.5,82,0.00,,,0.00,WUHU216HW,2013-12-19 12:24:00,
2013-12-19 06:29:00,37.3,32.6,29.44,SE,135,2.5,2.5,83,0.00,,,0.00,WUHU216HW,2013-12-19 12:29:00,
2013-12-19 06:35:00,37.1,32.4,29.44,SSE,158,2.7,2.7,83,0.00,,,0.00,WUHU216HW,2013-12-19 12:35:00,
2013-12-19 06:40:00,37.1,32.4,29.44,SE,135,2.5,2.7,83,0.00,,,0.00,WUHU216HW,2013-12-19 12:40:00,
2013-12-19 06:45:00,37.1,32.4,29.44,SE,135,2.0,3.1,83,0.00,,,0.00,WUHU216HW,2013-12-19 12:45:00,
2013-12-19 06:50:00,37.1,32.4,29.44,SE,144,2.6,3.1,83,0.00,,,0.00,WUHU216HW,2013-12-19 12:50:00,
2013-12-19 06:55:00,37.1,32.7,29.44,SE,135,2.0,3.1,84,0.00,,,0.00,WUHU216HW,2013-12-19 12:55:00,
2013-12-19 07:00:00,37.1,32.7,29.44,SSE,158,1.8,2.5,84,0.00,,,0.00,WUHU216HW,2013-12-19 13:00:00,
2013-12-19 07:05:00,37.1,32.7,29.44,SSE,158,1.8,2.5,84,0.00,,,0.00,WUHU216HW,2013-12-19 13:05:00,
2013-12-19 07:10:00,37.1,32.7,29.44,SE,139,2.1,2.5,84,0.00,,,0.00,WUHU216HW,2013-12-19 13:10:00,
2013-12-19 07:15:00,37.1,32.7,29.44,SE,135,2.0,2.5,84,0.00,,,0.00,WUHU216HW,2013-12-19 13:15:00,
2013-12-19 07:20:00,36.9,32.5,29.44,ESE,113,2.0,2.5,84,0.00,,,0.00,WUHU216HW,2013-12-19 13:20:00,
2013-12-19 07:26:00,36.9,32.5,29.44,SE,135,2.0,2.2,84,0.00,,,0.00,WUHU216HW,2013-12-19 13:26:00,
2013-12-19 07:31:00,36.7,32.3,29.44,SE,135,1.7,2.2,84,0.00,,,0.00,WUHU216HW,2013-12-19 13:31:00,
2013-12-19 07:36:00,36.7,32.3,29.45,SE,135,1.4,2.2,84,0.00,,,0.00,WUHU216HW,2013-12-19 13:36:00,
2013-12-19 07:41:00,36.7,32.3,29.44,SE,135,0.0,2.2,84,0.00,,,0.00,WUHU216HW,2013-12-19 13:41:00,
2013-12-19 07:46:00,36.9,32.8,29.45,SE,135,0.0,1.6,85,0.00,,,0.00,WUHU216HW,2013-12-19 13:46:00,
2013-12-19 07:51:00,37.1,32.9,29.45,SE,135,0.0,0.0,85,0.00,,,0.00,WUHU216HW,2013-12-19 13:51:00,
2013-12-19 07:56:00,37.3,33.1,29.45,SE,135,0.0,0.0,85,0.00,,,0.00,WUHU216HW,2013-12-19 13:56:00,
2013-12-19 08:01:00,37.4,33.3,29.44,SE,135,0.0,0.0,85,0.00,,,0.00,WUHU216HW,2013-12-19 14:01:00,
2013-12-19 08:06:00,37.8,33.9,29.45,South,180,1.8,2.2,86,0.00,,,0.00,WUHU216HW,2013-12-19 14:06:00,
2013-12-19 08:12:00,38.0,34.1,29.45,SSW,203,2.5,2.5,86,0.00,,,0.00,WUHU216HW,2013-12-19 14:12:00,
2013-12-19 08:20:00,38.0,34.1,29.45,SSE,158,1.8,2.5,86,0.00,,,0.00,WUHU216HW,2013-12-19 14:20:00,
2013-12-19 08:25:00,38.5,34.7,29.45,SE,135,1.8,2.2,86,0.00,,,0.00,WUHU216HW,2013-12-19 14:25:00,
2013-12-19 08:30:00,38.5,34.4,29.45,SSE,158,1.8,2.2,85,0.00,,,0.00,WUHU216HW,2013-12-19 14:30:00,
2013-12-19 08:35:00,38.9,35.0,29.45,SSE,158,2.2,2.5,86,0.00,,,0.00,WUHU216HW,2013-12-19 14:35:00,
2013-12-19 08:40:00,39.1,35.2,29.45,SE,135,2.2,2.5,86,0.00,,,0.00,WUHU216HW,2013-12-19 14:40:00,
2013-12-19 08:45:00,39.2,35.1,29.45,SE,135,3.1,3.4,85,0.00,,,0.00,WUHU216HW,2013-12-19 14:45:00,
2013-12-19 08:50:00,39.6,35.5,29.45,SE,135,2.2,3.4,85,0.00,,,0.00,WUHU216HW,2013-12-19 14:50:00,
2013-12-19 08:55:00,39.8,35.7,29.45,SE,143,2.4,3.1,85,0.00,,,0.00,WUHU216HW,2013-12-19 14:55:00,
2013-12-19 09:01:00,40.0,35.5,29.45,SSE,148,2.5,2.9,84,0.00,,,0.00,WUHU216HW,2013-12-19 15:01:00,
2013-12-19 09:06:00,40.1,35.6,29.45,SE,135,2.5,3.1,84,0.00,,,0.00,WUHU216HW,2013-12-19 15:06:00,
2013-12-19 09:11:00,40.3,35.8,29.45,SE,142,2.2,3.4,84,0.00,,,0.00,WUHU216HW,2013-12-19 15:11:00,
2013-12-19 09:16:00,40.7,36.2,29.46,SSE,147,3.2,3.6,84,0.00,,,0.00,WUHU216HW,2013-12-19 15:16:00,
2013-12-19 09:21:00,40.9,36.4,29.46,SSE,158,4.5,4.5,84,0.00,,,0.00,WUHU216HW,2013-12-19 15:21:00,
2013-12-19 09:26:00,41.2,36.7,29.46,SSW,199,3.2,4.5,84,0.00,,,0.00,WUHU216HW,2013-12-19 15:26:00,
2013-12-19 09:31:00,41.4,36.5,29.47,South,184,2.4,4.5,83,0.00,,,0.00,WUHU216HW,2013-12-19 15:31:00,
2013-12-19 09:36:00,41.8,36.9,29.47,SSW,207,2.9,4.5,83,0.00,,,0.00,WUHU216HW,2013-12-19 15:36:00,
2013-12-19 09:41:00,41.9,37.1,29.47,SSW,213,2.5,4.0,83,0.00,,,0.00,WUHU216HW,2013-12-19 15:41:00,
2013-12-19 09:46:00,42.1,37.0,29.47,South,180,2.9,4.0,82,0.00,,,0.00,WUHU216HW,2013-12-19 15:46:00,
2013-12-19 09:52:00,42.1,37.0,29.47,SSW,194,2.9,4.0,82,0.00,,,0.00,WUHU216HW,2013-12-19 15:52:00,
2013-12-19 09:57:00,42.3,37.2,29.47,SSE,150,2.8,4.0,82,0.00,,,0.00,WUHU216HW,2013-12-19 15:57:00,
2013-12-19 10:02:00,42.5,37.4,29.47,South,177,2.8,3.4,82,0.00,,,0.00,WUHU216HW,2013-12-19 16:02:00,
2013-12-19 10:07:00,42.5,37.0,29.47,South,180,2.9,4.0,81,0.00,,,0.00,WUHU216HW,2013-12-19 16:07:00,
2013-12-19 10:12:00,42.8,37.4,29.47,South,190,2.4,4.5,81,0.00,,,0.00,WUHU216HW,2013-12-19 16:12:00,
2013-12-19 10:17:00,42.8,37.4,29.47,SSE,166,3.5,4.5,81,0.00,,,0.00,WUHU216HW,2013-12-19 16:17:00,
2013-12-19 10:22:00,43.2,37.7,29.47,South,180,3.4,4.0,81,0.00,,,0.00,WUHU216HW,2013-12-19 16:22:00,
2013-12-19 10:27:00,43.2,37.4,29.47,South,180,2.9,4.0,80,0.00,,,0.00,WUHU216HW,2013-12-19 16:27:00,
2013-12-19 10:32:00,43.4,37.6,29.46,South,180,3.4,4.7,80,0.00,,,0.00,WUHU216HW,2013-12-19 16:32:00,
2013-12-19 10:37:00,43.6,37.8,29.46,SSE,150,2.3,4.7,80,0.00,,,0.00,WUHU216HW,2013-12-19 16:37:00,
2013-12-19 10:42:00,43.6,37.4,29.47,SSE,158,2.7,4.0,79,0.00,,,0.00,WUHU216HW,2013-12-19 16:42:00,
2013-12-19 10:48:00,43.7,37.6,29.46,SE,135,3.8,4.0,79,0.00,,,0.00,WUHU216HW,2013-12-19 16:48:00,
2013-12-19 10:53:00,43.7,37.6,29.47,South,175,2.5,4.0,79,0.00,,,0.00,WUHU216HW,2013-12-19 16:53:00,
2013-12-19 10:58:00,43.9,37.8,29.46,SSE,158,3.0,4.0,79,0.00,,,0.00,WUHU216HW,2013-12-19 16:58:00,
2013-12-19 11:03:00,43.9,37.8,29.46,South,171,3.1,4.0,79,0.00,,,0.00,WUHU216HW,2013-12-19 17:03:00,
2013-12-19 11:08:00,44.1,38.0,29.45,South,182,3.6,4.7,79,0.00,,,0.00,WUHU216HW,2013-12-19 17:08:00,
2013-12-19 11:13:00,44.3,37.8,29.45,SSW,203,3.4,4.7,78,0.00,,,0.00,WUHU216HW,2013-12-19 17:13:00,
2013-12-19 11:18:00,44.6,38.2,29.45,South,180,3.1,4.0,78,0.00,,,0.00,WUHU216HW,2013-12-19 17:18:00,
2013-12-19 11:23:00,44.6,37.9,29.44,SSE,158,3.8,4.5,77,0.00,,,0.00,WUHU216HW,2013-12-19 17:23:00,
2013-12-19 11:28:00,45.0,38.3,29.45,South,169,3.0,4.5,77,0.00,,,0.00,WUHU216HW,2013-12-19 17:28:00,
2013-12-19 11:33:00,45.7,39.0,29.45,SSW,203,3.6,4.7,77,0.00,,,0.00,WUHU216HW,2013-12-19 17:33:00,
2013-12-19 11:38:00,45.9,39.2,29.44,SSW,203,5.8,6.5,77,0.00,,,0.00,WUHU216HW,2013-12-19 17:38:00,
2013-12-19 11:44:00,46.4,39.3,29.44,SSW,198,3.4,6.5,76,0.00,,,0.00,WUHU216HW,2013-12-19 17:44:00,
2013-12-19 11:49:00,47.0,39.4,29.44,SW,225,5.6,6.9,75,0.00,,,0.00,WUHU216HW,2013-12-19 17:49:00,
2013-12-19 11:54:00,47.2,39.6,29.44,SSW,203,4.7,6.9,75,0.00,,,0.00,WUHU216HW,2013-12-19 17:54:00,
2013-12-19 11:59:00,47.2,39.6,29.44,South,180,4.5,6.5,75,0.00,,,0.00,WUHU216HW,2013-12-19 17:59:00,
2013-12-19 12:04:00,47.3,39.4,29.44,SW,218,4.0,5.8,74,0.00,,,0.00,WUHU216HW,2013-12-19 18:04:00,
2013-12-19 12:05:00,47.5,39.6,29.44,SW,215,4.4,5.8,74,0.00,,,0.00,WUHU216HW,2013-12-19 18:05:00,
2013-12-19 12:10:00,47.5,39.2,29.44,SW,225,6.0,6.0,73,0.00,,,0.00,WUHU216HW,2013-12-19 18:10:00,
2013-12-19 12:15:00,47.5,39.6,29.43,SW,225,5.4,6.0,74,0.00,,,0.00,WUHU216HW,2013-12-19 18:15:00,
2013-12-19 12:20:00,47.5,39.6,29.43,SSW,198,4.4,6.5,74,0.00,,,0.00,WUHU216HW,2013-12-19 18:20:00,
2013-12-19 12:25:00,47.3,39.4,29.43,SSW,203,3.8,7.4,74,0.00,,,0.00,WUHU216HW,2013-12-19 18:25:00,
2013-12-19 12:30:00,47.3,39.4,29.43,SSW,203,4.0,7.4,74,0.00,,,0.00,WUHU216HW,2013-12-19 18:30:00,
2013-12-19 12:35:00,47.5,39.6,29.43,SSW,193,3.4,5.1,74,0.00,,,0.00,WUHU216HW,2013-12-19 18:35:00,
2013-12-19 12:40:00,47.7,39.8,29.42,South,180,5.4,5.4,74,0.00,,,0.00,WUHU216HW,2013-12-19 18:40:00,
2013-12-19 12:45:00,47.9,40.0,29.42,SSW,207,4.3,6.3,74,0.00,,,0.00,WUHU216HW,2013-12-19 18:45:00,
2013-12-19 12:51:00,47.9,39.6,29.41,South,180,2.7,6.3,73,0.00,,,0.00,WUHU216HW,2013-12-19 18:51:00,
2013-12-19 12:56:00,47.9,39.6,29.41,South,171,4.0,4.7,73,0.00,,,0.00,WUHU216HW,2013-12-19 18:56:00,
2013-12-19 13:01:00,47.9,39.6,29.41,SE,135,4.0,4.7,73,0.00,,,0.00,WUHU216HW,2013-12-19 19:01:00,
2013-12-19 13:06:00,47.9,39.6,29.41,SE,144,3.4,4.7,73,0.00,,,0.00,WUHU216HW,2013-12-19 19:06:00,
2013-12-19 13:11:00,47.9,39.6,29.40,SE,129,4.0,4.5,73,0.00,,,0.00,WUHU216HW,2013-12-19 19:11:00,
2013-12-19 13:16:00,47.9,39.6,29.40,SSE,152,3.3,4.5,73,0.00,,,0.00,WUHU216HW,2013-12-19 19:16:00,
2013-12-19 13:21:00,47.7,39.8,29.40,SSE,158,2.7,4.0,74,0.00,,,0.00,WUHU216HW,2013-12-19 19:21:00,
2013-12-19 13:26:00,47.7,39.8,29.40,SSE,158,2.9,3.6,74,0.00,,,0.00,WUHU216HW,2013-12-19 19:26:00,
2013-12-19 13:31:00,47.3,39.4,29.40,ESE,113,3.6,4.9,74,0.00,,,0.00,WUHU216HW,2013-12-19 19:31:00,
2013-12-19 13:36:00,47.2,39.6,29.40,SSE,158,3.4,4.9,75,0.00,,,0.00,WUHU216HW,2013-12-19 19:36:00,
2013-12-19 13:41:00,47.2,39.6,29.39,SSE,158,2.9,4.0,75,0.00,,,0.00,WUHU216HW,2013-12-19 19:41:00,
2013-12-19 13:47:00,47.0,39.4,29.39,ESE,113,4.0,4.7,75,0.00,,,0.00,WUHU216HW,2013-12-19 19:47:00,
2013-12-19 13:52:00,46.6,39.5,29.39,SE,135,2.7,4.7,76,0.00,,,0.00,WUHU216HW,2013-12-19 19:52:00,
2013-12-19 13:57:00,46.6,39.5,29.39,SE,143,3.3,4.5,76,0.00,,,0.00,WUHU216HW,2013-12-19 19:57:00,
2013-12-19 14:02:00,46.6,39.8,29.39,SSE,158,4.5,4.5,77,0.00,,,0.00,WUHU216HW,2013-12-19 20:02:00,
2013-12-19 14:07:00,46.4,39.7,29.39,SE,133,3.2,4.5,77,0.00,,,0.00,WUHU216HW,2013-12-19 20:07:00,
2013-12-19 14:12:00,46.4,39.7,29.39,SSE,158,4.7,5.1,77,0.00,,,0.00,WUHU216HW,2013-12-19 20:12:00,
2013-12-19 14:17:00,46.4,40.0,29.39,SSE,152,4.2,5.4,78,0.00,,,0.00,WUHU216HW,2013-12-19 20:17:00,
2013-12-19 14:22:00,46.4,40.0,29.39,SE,141,4.1,6.3,78,0.00,,,0.00,WUHU216HW,2013-12-19 20:22:00,
2013-12-19 14:27:00,46.4,40.0,29.39,SSE,158,3.1,6.3,78,0.00,,,0.00,WUHU216HW,2013-12-19 20:27:00,
2013-12-19 14:32:00,46.4,40.0,29.39,SSE,158,4.7,4.7,78,0.00,,,0.00,WUHU216HW,2013-12-19 20:32:00,
2013-12-19 14:37:00,46.4,39.7,29.38,SSE,158,4.5,5.4,77,0.00,,,0.00,WUHU216HW,2013-12-19 20:37:00,
2013-12-19 14:43:00,46.3,39.5,29.38,SE,139,3.5,5.4,77,0.00,,,0.00,WUHU216HW,2013-12-19 20:43:00,
2013-12-19 14:48:00,46.1,39.6,29.38,SE,135,3.4,4.9,78,0.00,,,0.00,WUHU216HW,2013-12-19 20:48:00,
2013-12-19 14:53:00,46.1,39.6,29.38,ESE,113,4.5,4.5,78,0.00,,,0.00,WUHU216HW,2013-12-19 20:53:00,
2013-12-19 14:58:00,46.1,39.6,29.38,SE,135,3.8,4.5,78,0.00,,,0.00,WUHU216HW,2013-12-19 20:58:00,
2013-12-19 15:03:00,45.9,39.4,29.38,SE,145,2.9,4.5,78,0.00,,,0.00,WUHU216HW,2013-12-19 21:03:00,
2013-12-19 15:08:00,45.9,39.4,29.38,SE,142,2.6,3.8,78,0.00,,,0.00,WUHU216HW,2013-12-19 21:08:00,
2013-12-19 15:13:00,45.7,39.6,29.37,SE,139,3.7,4.3,79,0.00,,,0.00,WUHU216HW,2013-12-19 21:13:00,
2013-12-19 15:18:00,45.7,40.0,29.38,SE,140,3.2,4.7,80,0.00,,,0.00,WUHU216HW,2013-12-19 21:18:00,
2013-12-19 15:23:00,45.5,39.8,29.38,SSE,152,4.2,6.0,80,0.00,,,0.00,WUHU216HW,2013-12-19 21:23:00,
2013-12-19 15:28:00,45.5,39.8,29.37,SE,141,3.8,6.0,80,0.00,,,0.00,WUHU216HW,2013-12-19 21:28:00,
2013-12-19 15:33:00,45.4,39.9,29.37,SE,135,3.6,5.1,81,0.00,,,0.00,WUHU216HW,2013-12-19 21:33:00,
2013-12-19 15:39:00,45.4,39.9,29.37,SSE,158,3.1,4.7,81,0.00,,,0.00,WUHU216HW,2013-12-19 21:39:00,
2013-12-19 15:44:00,45.4,40.2,29.37,SSE,158,3.2,4.7,82,0.00,,,0.00,WUHU216HW,2013-12-19 21:44:00,
2013-12-19 15:49:00,45.4,40.2,29.38,SSE,155,3.6,4.7,82,0.00,,,0.00,WUHU216HW,2013-12-19 21:49:00,
2013-12-19 15:54:00,45.4,40.2,29.38,SSE,162,3.7,5.4,82,0.00,,,0.00,WUHU216HW,2013-12-19 21:54:00,
2013-12-19 15:59:00,45.4,40.5,29.37,SSW,203,4.0,5.4,83,0.00,,,0.00,WUHU216HW,2013-12-19 21:59:00,
2013-12-19 16:04:00,45.5,40.7,29.38,SSE,160,3.1,5.1,83,0.00,,,0.00,WUHU216HW,2013-12-19 22:04:00,
2013-12-19 16:09:00,45.5,40.7,29.37,SSW,203,4.7,4.9,83,0.00,,,0.00,WUHU216HW,2013-12-19 22:09:00,
2013-12-19 16:14:00,45.7,40.9,29.37,South,180,4.7,5.4,83,0.00,,,0.00,WUHU216HW,2013-12-19 22:14:00,
2013-12-19 16:19:00,45.7,41.2,29.37,SSE,158,4.7,5.4,84,0.00,,,0.00,WUHU216HW,2013-12-19 22:19:00,
2013-12-19 16:24:00,45.7,41.2,29.37,SSE,158,4.5,5.4,84,0.00,,,0.00,WUHU216HW,2013-12-19 22:24:00,
2013-12-19 16:29:00,45.7,41.2,29.37,SSE,158,4.0,5.4,84,0.00,,,0.00,WUHU216HW,2013-12-19 22:29:00,
2013-12-19 16:34:00,45.5,41.3,29.37,SSE,158,4.0,5.4,85,0.00,,,0.00,WUHU216HW,2013-12-19 22:34:00,
2013-12-19 16:40:00,45.5,41.3,29.37,SE,135,3.8,4.7,85,0.00,,,0.00,WUHU216HW,2013-12-19 22:40:00,
2013-12-19 16:45:00,45.5,41.3,29.37,SSE,158,3.8,4.7,85,0.00,,,0.00,WUHU216HW,2013-12-19 22:45:00,
2013-12-19 16:50:00,45.4,40.9,29.37,SE,135,3.4,4.7,84,0.00,,,0.00,WUHU216HW,2013-12-19 22:50:00,
2013-12-19 16:55:00,45.2,40.7,29.37,SSE,158,3.4,4.3,84,0.00,,,0.00,WUHU216HW,2013-12-19 22:55:00,
2013-12-19 17:00:00,45.0,40.8,29.37,South,180,2.9,4.0,85,0.00,,,0.00,WUHU216HW,2013-12-19 23:00:00,
2013-12-19 17:05:00,45.0,40.8,29.38,SSE,162,2.9,3.6,85,0.00,,,0.00,WUHU216HW,2013-12-19 23:05:00,
2013-12-19 17:10:00,45.0,40.8,29.38,SSE,155,2.6,4.3,85,0.00,,,0.00,WUHU216HW,2013-12-19 23:10:00,
2013-12-19 17:16:00,45.0,40.8,29.37,SSE,152,2.7,4.3,85,0.00,,,0.00,WUHU216HW,2013-12-19 23:16:00,
2013-12-19 17:21:00,44.6,40.4,29.37,SE,135,3.4,3.4,85,0.00,,,0.00,WUHU216HW,2013-12-19 23:21:00,
2013-12-19 17:26:00,44.6,40.4,29.37,SSE,157,3.1,4.5,85,0.00,,,0.00,WUHU216HW,2013-12-19 23:26:00,
2013-12-19 17:31:00,44.6,40.7,29.37,SE,135,4.7,4.7,86,0.00,,,0.00,WUHU216HW,2013-12-19 23:31:00,
2013-12-19 17:36:00,44.5,40.9,29.37,SSE,152,4.0,5.4,87,0.00,,,0.00,WUHU216HW,2013-12-19 23:36:00,
2013-12-19 17:41:00,44.5,40.9,29.36,SSE,156,3.2,5.4,87,0.00,,,0.00,WUHU216HW,2013-12-19 23:41:00,
2013-12-19 17:46:00,44.6,41.1,29.36,SSE,158,3.6,4.5,87,0.00,,,0.00,WUHU216HW,2013-12-19 23:46:00,
2013-12-19 17:51:00,44.5,40.5,29.36,South,180,4.9,4.9,86,0.00,,,0.00,WUHU216HW,2013-12-19 23:51:00,
2013-12-19 17:56:00,44.5,41.1,29.36,SE,135,3.6,5.8,88,0.00,,,0.00,WUHU216HW,2013-12-19 23:56:00,
2013-12-19 18:01:00,44.8,41.5,29.37,South,184,4.2,5.8,88,0.00,,,0.00,WUHU216HW,2013-12-20 00:01:00,
2013-12-19 18:06:00,45.0,41.4,29.37,South,180,4.5,6.7,87,0.00,,,0.00,WUHU216HW,2013-12-20 00:06:00,
2013-12-19 18:12:00,45.4,41.8,29.37,South,189,3.6,6.7,87,0.00,,,0.00,WUHU216HW,2013-12-20 00:12:00,
2013-12-19 18:17:00,45.4,41.8,29.36,SSW,195,4.5,6.3,87,0.00,,,0.00,WUHU216HW,2013-12-20 00:17:00,
2013-12-19 18:22:00,45.4,41.8,29.37,South,180,4.7,5.4,87,0.00,,,0.00,WUHU216HW,2013-12-20 00:22:00,
2013-12-19 18:27:00,45.4,41.8,29.37,South,183,4.4,5.6,87,0.00,,,0.00,WUHU216HW,2013-12-20 00:27:00,
2013-12-19 18:32:00,45.4,41.8,29.37,South,188,3.7,5.6,87,0.00,,,0.00,WUHU216HW,2013-12-20 00:32:00,
2013-12-19 18:37:00,45.4,41.8,29.37,South,180,4.0,5.4,87,0.00,,,0.00,WUHU216HW,2013-12-20 00:37:00,
2013-12-19 18:42:00,45.4,41.8,29.37,SSE,158,3.8,6.9,87,0.00,,,0.00,WUHU216HW,2013-12-20 00:42:00,
2013-12-19 18:47:00,45.4,42.0,29.37,SSW,203,5.1,6.9,88,0.00,,,0.00,WUHU216HW,2013-12-20 00:47:00,
2013-12-19 18:52:00,45.4,42.0,29.37,South,181,3.8,6.3,88,0.00,,,0.00,WUHU216HW,2013-12-20 00:52:00,
2013-12-19 18:57:00,45.4,42.0,29.37,South,180,4.7,6.3,88,0.00,,,0.00,WUHU216HW,2013-12-20 00:57:00,
2013-12-19 19:03:00,45.2,41.9,29.37,South,180,3.8,5.8,88,0.00,,,0.00,WUHU216HW,2013-12-20 01:03:00,
2013-12-19 19:08:00,45.2,41.9,29.37,South,184,3.4,5.8,88,0.00,,,0.00,WUHU216HW,2013-12-20 01:08:00,
2013-12-19 19:13:00,45.2,41.9,29.37,South,180,2.8,5.1,88,0.00,,,0.00,WUHU216HW,2013-12-20 01:13:00,
2013-12-19 19:18:00,45.2,42.2,29.37,SSE,158,6.3,6.3,89,0.00,,,0.00,WUHU216HW,2013-12-20 01:18:00,
2013-12-19 19:23:00,45.2,42.2,29.36,South,171,4.1,6.3,89,0.00,,,0.00,WUHU216HW,2013-12-20 01:23:00,
2013-12-19 19:28:00,45.4,42.4,29.36,SSW,203,4.3,6.3,89,0.00,,,0.00,WUHU216HW,2013-12-20 01:28:00,
2013-12-19 19:33:00,45.4,42.4,29.36,SSW,203,4.0,6.3,89,0.00,,,0.00,WUHU216HW,2013-12-20 01:33:00,
2013-12-19 19:38:00,45.4,42.4,29.36,SSE,158,4.0,7.4,89,0.00,,,0.00,WUHU216HW,2013-12-20 01:38:00,
2013-12-19 19:43:00,45.4,42.4,29.36,South,187,4.6,7.4,89,0.00,,,0.00,WUHU216HW,2013-12-20 01:43:00,
2013-12-19 19:49:00,45.4,42.4,29.36,South,180,4.7,6.5,89,0.00,,,0.00,WUHU216HW,2013-12-20 01:49:00,
2013-12-19 19:54:00,45.4,42.4,29.36,South,186,3.9,4.9,89,0.00,,,0.00,WUHU216HW,2013-12-20 01:54:00,
2013-12-19 19:59:00,45.4,42.4,29.35,South,178,4.0,5.4,89,0.00,,,0.00,WUHU216HW,2013-12-20 01:59:00,
2013-12-19 20:04:00,45.4,42.4,29.35,SSW,203,5.4,5.4,89,0.00,,,0.00,WUHU216HW,2013-12-20 02:04:00,
2013-12-19 20:09:00,45.4,42.7,29.35,South,185,4.2,5.6,90,0.00,,,0.00,WUHU216HW,2013-12-20 02:09:00,
2013-12-19 20:14:00,45.5,42.8,29.35,South,180,3.4,5.6,90,0.00,,,0.00,WUHU216HW,2013-12-20 02:14:00,
2013-12-19 20:19:00,45.4,42.7,29.35,South,180,3.4,5.1,90,0.00,,,0.00,WUHU216HW,2013-12-20 02:19:00,
2013-12-19 20:24:00,45.4,42.7,29.35,South,180,4.0,5.4,90,0.00,,,0.00,WUHU216HW,2013-12-20 02:24:00,
2013-12-19 20:29:00,45.4,42.7,29.34,South,180,5.1,5.4,90,0.00,,,0.00,WUHU216HW,2013-12-20 02:29:00,
2013-12-19 20:34:00,45.5,42.8,29.34,South,180,4.7,5.6,90,0.00,,,0.00,WUHU216HW,2013-12-20 02:34:00,
2013-12-19 20:39:00,45.5,42.8,29.34,SSW,196,4.6,6.3,90,0.00,,,0.00,WUHU216HW,2013-12-20 02:39:00,
2013-12-19 20:44:00,45.7,43.0,29.34,SW,225,6.3,8.1,90,0.00,,,0.00,WUHU216HW,2013-12-20 02:44:00,
2013-12-19 20:49:00,45.9,43.2,29.34,SW,225,6.0,8.3,90,0.00,,,0.00,WUHU216HW,2013-12-20 02:49:00,
2013-12-19 20:54:00,45.9,43.2,29.34,SSE,158,4.5,8.3,90,0.00,,,0.00,WUHU216HW,2013-12-20 02:54:00,
2013-12-19 21:00:00,45.9,43.2,29.34,SSE,158,4.7,7.8,90,0.00,,,0.00,WUHU216HW,2013-12-20 03:00:00,
2013-12-19 21:05:00,45.9,43.2,29.34,South,186,5.2,7.8,90,0.00,,,0.00,WUHU216HW,2013-12-20 03:05:00,
2013-12-19 21:10:00,45.9,43.2,29.34,SW,225,7.6,7.8,90,0.00,,,0.00,WUHU216HW,2013-12-20 03:10:00,
2013-12-19 21:15:00,46.1,43.4,29.34,SSW,203,6.3,8.7,90,0.00,,,0.00,WUHU216HW,2013-12-20 03:15:00,
2013-12-19 21:20:00,46.1,43.1,29.34,SSW,200,4.9,8.7,89,0.00,,,0.00,WUHU216HW,2013-12-20 03:20:00,
2013-12-19 21:25:00,46.1,43.1,29.34,SSW,199,5.2,8.3,89,0.00,,,0.00,WUHU216HW,2013-12-20 03:25:00,
2013-12-19 21:30:00,45.9,42.9,29.34,South,183,4.1,8.3,89,0.00,,,0.00,WUHU216HW,2013-12-20 03:30:00,
2013-12-19 21:35:00,45.9,43.2,29.34,SSW,203,4.3,7.2,90,0.00,,,0.00,WUHU216HW,2013-12-20 03:35:00,
2013-12-19 21:40:00,45.9,43.2,29.34,SSW,196,5.0,6.9,90,0.00,,,0.00,WUHU216HW,2013-12-20 03:40:00,
2013-12-19 21:45:00,45.9,43.2,29.34,SSW,203,5.1,6.9,90,0.00,,,0.00,WUHU216HW,2013-12-20 03:45:00,
2013-12-19 21:50:00,46.1,43.4,29.34,SSW,196,4.5,6.9,90,0.00,,,0.00,WUHU216HW,2013-12-20 03:50:00,
2013-12-19 21:55:00,45.9,43.2,29.34,SSW,203,5.8,6.9,90,0.00,,,0.00,WUHU216HW,2013-12-20 03:55:00,
2013-12-19 22:00:00,45.9,43.2,29.34,SSW,203,5.8,6.0,90,0.00,,,0.00,WUHU216HW,2013-12-20 04:00:00,
2013-12-19 22:05:00,46.1,43.4,29.34,SSW,194,4.0,7.8,90,0.00,,,0.00,WUHU216HW,2013-12-20 04:05:00,
2013-12-19 22:11:00,46.1,43.4,29.34,SSW,195,3.6,7.8,90,0.00,,,0.00,WUHU216HW,2013-12-20 04:11:00,
2013-12-19 22:16:00,46.1,43.4,29.34,South,188,4.1,6.3,90,0.00,,,0.00,WUHU216HW,2013-12-20 04:16:00,
2013-12-19 22:21:00,46.1,43.4,29.34,SSW,203,4.7,5.6,90,0.00,,,0.00,WUHU216HW,2013-12-20 04:21:00,
2013-12-19 22:26:00,46.1,43.4,29.34,South,180,3.6,5.4,90,0.00,,,0.00,WUHU216HW,2013-12-20 04:26:00,
2013-12-19 22:31:00,46.1,43.4,29.34,South,180,3.4,5.4,90,0.00,,,0.00,WUHU216HW,2013-12-20 04:31:00,
2013-12-19 22:36:00,46.1,43.7,29.34,South,187,4.3,5.6,91,0.00,,,0.00,WUHU216HW,2013-12-20 04:36:00,
2013-12-19 22:41:00,45.9,43.5,29.34,South,191,3.4,5.6,91,0.00,,,0.00,WUHU216HW,2013-12-20 04:41:00,
2013-12-19 22:46:00,45.9,43.5,29.33,South,180,3.4,6.0,91,0.00,,,0.00,WUHU216HW,2013-12-20 04:46:00,
2013-12-19 22:51:00,45.9,43.5,29.34,SSW,196,2.9,6.0,91,0.00,,,0.00,WUHU216HW,2013-12-20 04:51:00,
2013-12-19 22:57:00,46.1,43.7,29.33,SSW,204,4.1,5.4,91,0.00,,,0.00,WUHU216HW,2013-12-20 04:57:00,
2013-12-19 23:01:00,46.1,43.7,29.33,South,180,4.3,5.6,91,0.00,,,0.00,WUHU216HW,2013-12-20 05:01:00,
2013-12-19 23:02:00,46.1,43.7,29.33,SSW,203,6.5,6.5,91,0.00,,,0.00,WUHU216HW,2013-12-20 05:02:00,
2013-12-19 23:03:00,46.3,43.8,29.33,SSW,203,5.4,6.5,91,0.00,,,0.00,WUHU216HW,2013-12-20 05:03:00,
2013-12-19 23:08:00,46.3,43.8,29.33,SSE,158,4.5,6.5,91,0.00,,,0.00,WUHU216HW,2013-12-20 05:08:00,
2013-12-19 23:13:00,46.3,43.8,29.33,South,182,4.4,6.9,91,0.00,,,0.00,WUHU216HW,2013-12-20 05:13:00,
2013-12-19 23:18:00,46.4,44.0,29.33,South,187,3.7,6.9,91,0.00,,,0.00,WUHU216HW,2013-12-20 05:18:00,
2013-12-19 23:23:00,46.3,43.8,29.33,SSW,208,3.9,6.3,91,0.00,,,0.00,WUHU216HW,2013-12-20 05:23:00,
2013-12-19 23:28:00,46.3,43.8,29.33,SSW,197,4.3,5.6,91,0.00,,,0.00,WUHU216HW,2013-12-20 05:28:00,
2013-12-19 23:33:00,46.3,43.8,29.33,SSW,197,3.3,5.1,91,0.00,,,0.00,WUHU216HW,2013-12-20 05:33:00,
2013-12-19 23:39:00,46.3,43.8,29.33,SSW,196,3.3,4.9,91,0.00,,,0.00,WUHU216HW,2013-12-20 05:39:00,
2013-12-19 23:44:00,46.3,43.8,29.33,South,189,3.3,5.4,91,0.00,,,0.00,WUHU216HW,2013-12-20 05:44:00,
2013-12-19 23:47:00,46.3,43.8,29.33,SSW,203,4.0,5.4,91,0.00,,,0.00,WUHU216HW,2013-12-20 05:47:00,
2013-12-19 23:52:00,46.3,43.8,29.33,SSW,203,5.1,6.3,91,0.00,,,0.00,WUHU216HW,2013-12-20 05:52:00,
2013-12-19 23:57:00,46.3,43.8,29.33,South,180,4.7,6.3,91,0.00,,,0.00,WUHU216HW,2013-12-20 05:57:00,